sensor_id;sensor_type;location;lat;lon;timestamp;pressure;altitude;pressure_sealevel;temperature;humidity
79285;BME280;68734;50.452;11.636;2023-12-20T00:01:01;95209.00;;;1.12;97.18
79285;BME280;68734;50.452;11.636;2023-12-20T00:03:31;95205.94;;;1.08;97.33
79285;BME280;68734;50.452;11.636;2023-12-20T00:05:56;95213.31;;;1.06;97.31
79285;BME280;68734;50.452;11.636;2023-12-20T00:08:22;95212.09;;;1.09;97.11
79285;BME280;68734;50.452;11.636;2023-12-20T00:10:47;95207.19;;;1.06;97.44
79285;BME280;68734;50.452;11.636;2023-12-20T00:13:13;95197.75;;;1.10;97.05
79285;BME280;68734;50.452;11.636;2023-12-20T00:15:41;95198.19;;;1.07;97.13
79285;BME280;68734;50.452;11.636;2023-12-20T00:18:06;95193.28;;;1.04;97.20
79285;BME280;68734;50.452;11.636;2023-12-20T00:20:32;95190.22;;;1.07;97.20
79285;BME280;68734;50.452;11.636;2023-12-20T00:22:57;95188.56;;;1.06;96.99
79285;BME280;68734;50.452;11.636;2023-12-20T00:25:24;95193.28;;;1.04;97.11
79285;BME280;68734;50.452;11.636;2023-12-20T00:27:52;95190.63;;;1.04;97.26
79285;BME280;68734;50.452;11.636;2023-12-20T00:30:18;95187.56;;;1.00;97.21
79285;BME280;68734;50.452;11.636;2023-12-20T00:32:43;95192.69;;;1.02;97.39
79285;BME280;68734;50.452;11.636;2023-12-20T00:35:15;95191.25;;;0.99;97.06
79285;BME280;68734;50.452;11.636;2023-12-20T00:37:42;95190.44;;;0.98;97.21
79285;BME280;68734;50.452;11.636;2023-12-20T00:40:08;95185.94;;;0.99;97.06
79285;BME280;68734;50.452;11.636;2023-12-20T00:42:33;95186.75;;;0.99;96.97
79285;BME280;68734;50.452;11.636;2023-12-20T00:44:59;95184.53;;;0.96;96.89
79285;BME280;68734;50.452;11.636;2023-12-20T00:47:25;95178.19;;;0.91;96.95
79285;BME280;68734;50.452;11.636;2023-12-20T00:49:51;95184.75;;;0.88;97.16
79285;BME280;68734;50.452;11.636;2023-12-20T00:52:16;95182.91;;;0.82;97.10
79285;BME280;68734;50.452;11.636;2023-12-20T00:54:43;95184.75;;;0.82;97.37
79285;BME280;68734;50.452;11.636;2023-12-20T00:57:08;95191.31;;;0.79;97.42
79285;BME280;68734;50.452;11.636;2023-12-20T00:59:36;95179.03;;;0.78;97.75
79285;BME280;68734;50.452;11.636;2023-12-20T01:02:02;95178.63;;;0.81;97.79
79285;BME280;68734;50.452;11.636;2023-12-20T01:04:30;95171.47;;;0.82;97.89
79285;BME280;68734;50.452;11.636;2023-12-20T01:06:56;95173.72;;;0.78;97.98
79285;BME280;68734;50.452;11.636;2023-12-20T01:09:21;95164.75;;;0.72;97.95
79285;BME280;68734;50.452;11.636;2023-12-20T01:11:51;95171.28;;;0.76;98.40
79285;BME280;68734;50.452;11.636;2023-12-20T01:14:17;95166.94;;;0.82;98.09
79285;BME280;68734;50.452;11.636;2023-12-20T01:16:45;95170.81;;;0.86;97.93
79285;BME280;68734;50.452;11.636;2023-12-20T01:19:10;95162.84;;;0.86;97.82
79285;BME280;68734;50.452;11.636;2023-12-20T01:21:38;95161.84;;;0.87;98.00
79285;BME280;68734;50.452;11.636;2023-12-20T01:24:08;95162.66;;;0.88;98.15
79285;BME280;68734;50.452;11.636;2023-12-20T01:26:34;95145.47;;;0.90;97.76
79285;BME280;68734;50.452;11.636;2023-12-20T01:28:59;95153.22;;;0.92;97.86
79285;BME280;68734;50.452;11.636;2023-12-20T01:31:25;95153.63;;;0.95;97.97
79285;BME280;68734;50.452;11.636;2023-12-20T01:33:52;95145.47;;;0.90;97.73
79285;BME280;68734;50.452;11.636;2023-12-20T01:36:18;95153.81;;;1.01;97.69
79285;BME280;68734;50.452;11.636;2023-12-20T01:38:43;95158.94;;;0.95;97.90
79285;BME280;68734;50.452;11.636;2023-12-20T01:41:09;95151.16;;;1.01;97.21
79285;BME280;68734;50.452;11.636;2023-12-20T01:43:34;95143.78;;;1.03;97.30
79285;BME280;68734;50.452;11.636;2023-12-20T01:46:00;95148.72;;;0.99;97.33
79285;BME280;68734;50.452;11.636;2023-12-20T01:48:28;95142.59;;;0.98;97.31
79285;BME280;68734;50.452;11.636;2023-12-20T01:50:54;95134.38;;;1.07;97.06
79285;BME280;68734;50.452;11.636;2023-12-20T01:53:24;95142.94;;;1.09;96.69
79285;BME280;68734;50.452;11.636;2023-12-20T01:55:52;95149.06;;;1.09;96.64
79285;BME280;68734;50.452;11.636;2023-12-20T01:58:19;95138.47;;;1.03;96.97
79285;BME280;68734;50.452;11.636;2023-12-20T02:00:46;95140.53;;;1.01;97.50
79285;BME280;68734;50.452;11.636;2023-12-20T02:03:14;95129.50;;;0.97;97.55
79285;BME280;68734;50.452;11.636;2023-12-20T02:05:39;95132.72;;;1.06;97.07
79285;BME280;68734;50.452;11.636;2023-12-20T02:08:07;95122.88;;;1.06;97.08
79285;BME280;68734;50.452;11.636;2023-12-20T02:10:36;95133.91;;;1.10;96.74
79285;BME280;68734;50.452;11.636;2023-12-20T02:13:01;95137.19;;;1.12;96.55
79285;BME280;68734;50.452;11.636;2023-12-20T02:15:27;95128.59;;;1.10;96.66
79285;BME280;68734;50.452;11.636;2023-12-20T02:17:53;95113.09;;;1.07;96.44
79285;BME280;68734;50.452;11.636;2023-12-20T02:20:18;95124.13;;;1.04;96.73
79285;BME280;68734;50.452;11.636;2023-12-20T02:22:44;95122.91;;;0.99;96.94
79285;BME280;68734;50.452;11.636;2023-12-20T02:25:09;95114.34;;;0.97;97.01
79285;BME280;68734;50.452;11.636;2023-12-20T02:27:35;95113.09;;;1.07;96.70
79285;BME280;68734;50.452;11.636;2023-12-20T02:30:00;95105.72;;;1.02;97.17
79285;BME280;68734;50.452;11.636;2023-12-20T02:32:26;95104.91;;;1.02;96.97
79285;BME280;68734;50.452;11.636;2023-12-20T02:34:51;95095.06;;;1.02;97.00
79285;BME280;68734;50.452;11.636;2023-12-20T02:37:19;95096.31;;;0.99;97.18
79285;BME280;68734;50.452;11.636;2023-12-20T02:39:45;95101.44;;;1.01;97.29
79285;BME280;68734;50.452;11.636;2023-12-20T02:42:10;95102.44;;;1.00;97.21
79285;BME280;68734;50.452;11.636;2023-12-20T02:44:36;95094.72;;;0.98;97.35
79285;BME280;68734;50.452;11.636;2023-12-20T02:47:04;95097.97;;;1.01;97.12
79285;BME280;68734;50.452;11.636;2023-12-20T02:49:29;95090.59;;;1.03;97.39
79285;BME280;68734;50.452;11.636;2023-12-20T02:51:55;95101.66;;;0.99;97.14
79285;BME280;68734;50.452;11.636;2023-12-20T02:54:20;95091.03;;;0.93;97.32
79285;BME280;68734;50.452;11.636;2023-12-20T02:56:46;95099.66;;;0.88;97.57
79285;BME280;68734;50.452;11.636;2023-12-20T02:59:12;95095.56;;;0.92;97.69
79285;BME280;68734;50.452;11.636;2023-12-20T03:01:45;95108.59;;;1.01;97.40
79285;BME280;68734;50.452;11.636;2023-12-20T03:04:13;95101.66;;;0.99;97.22
79285;BME280;68734;50.452;11.636;2023-12-20T03:06:38;95099.44;;;0.96;97.45
79285;BME280;68734;50.452;11.636;2023-12-20T03:09:06;95093.91;;;0.91;97.43
79285;BME280;68734;50.452;11.636;2023-12-20T03:11:31;95101.66;;;0.99;97.56
79285;BME280;68734;50.452;11.636;2023-12-20T03:13:59;95101.03;;;0.97;97.76
79285;BME280;68734;50.452;11.636;2023-12-20T03:16:25;95100.19;;;1.04;97.19
79285;BME280;68734;50.452;11.636;2023-12-20T03:18:52;95102.84;;;1.04;97.39
79285;BME280;68734;50.452;11.636;2023-12-20T03:21:18;95097.97;;;1.01;97.72
79285;BME280;68734;50.452;11.636;2023-12-20T03:23:43;95100.03;;;0.98;97.53
79285;BME280;68734;50.452;11.636;2023-12-20T03:26:09;95099.19;;;0.98;98.06
79285;BME280;68734;50.452;11.636;2023-12-20T03:28:36;95099.78;;;1.00;97.71
79285;BME280;68734;50.452;11.636;2023-12-20T03:31:04;95097.97;;;1.01;97.83
79285;BME280;68734;50.452;11.636;2023-12-20T03:33:29;95091.22;;;0.98;97.91
79285;BME280;68734;50.452;11.636;2023-12-20T03:35:55;95094.72;;;0.98;98.02
79285;BME280;68734;50.452;11.636;2023-12-20T03:38:21;95102.44;;;1.00;97.70
79285;BME280;68734;50.452;11.636;2023-12-20T03:40:49;95106.56;;;1.03;97.76
79285;BME280;68734;50.452;11.636;2023-12-20T03:43:14;95108.59;;;1.01;98.00
79285;BME280;68734;50.452;11.636;2023-12-20T03:45:42;95100.03;;;0.98;98.22
79285;BME280;68734;50.452;11.636;2023-12-20T03:48:08;95110.22;;;1.02;98.10
79285;BME280;68734;50.452;11.636;2023-12-20T03:50:35;95107.38;;;1.03;98.18
79285;BME280;68734;50.452;11.636;2023-12-20T03:53:01;95092.22;;;1.04;98.17
79285;BME280;68734;50.452;11.636;2023-12-20T03:55:27;95101.25;;;1.03;98.32
79285;BME280;68734;50.452;11.636;2023-12-20T03:57:52;95103.28;;;1.01;98.77
79285;BME280;68734;50.452;11.636;2023-12-20T04:00:20;95100.38;;;1.09;98.06
79285;BME280;68734;50.452;11.636;2023-12-20T04:02:45;95099.53;;;1.08;98.09
79285;BME280;68734;50.452;11.636;2023-12-20T04:05:11;95114.69;;;1.08;97.84
79285;BME280;68734;50.452;11.636;2023-12-20T04:07:37;95116.34;;;1.09;98.46
79285;BME280;68734;50.452;11.636;2023-12-20T04:10:03;95127.59;;;1.11;98.27
79285;BME280;68734;50.452;11.636;2023-12-20T04:12:29;95117.94;;;1.16;97.71
79285;BME280;68734;50.452;11.636;2023-12-20T04:15:00;95110.78;;;1.17;97.68
79285;BME280;68734;50.452;11.636;2023-12-20T04:17:25;95112.63;;;1.16;97.56
79285;BME280;68734;50.452;11.636;2023-12-20T04:19:51;95116.31;;;1.15;97.38
79285;BME280;68734;50.452;11.636;2023-12-20T04:22:19;95118.16;;;1.15;97.64
79285;BME280;68734;50.452;11.636;2023-12-20T04:24:45;95118.81;;;1.10;97.61
79285;BME280;68734;50.452;11.636;2023-12-20T04:27:11;95123.47;;;1.15;97.98
79285;BME280;68734;50.452;11.636;2023-12-20T04:29:36;95122.88;;;1.13;98.20
79285;BME280;68734;50.452;11.636;2023-12-20T04:32:04;95124.09;;;1.17;97.83
79285;BME280;68734;50.452;11.636;2023-12-20T04:34:29;95120.81;;;1.15;97.79
79285;BME280;68734;50.452;11.636;2023-12-20T04:36:55;95119.59;;;1.11;98.04
79285;BME280;68734;50.452;11.636;2023-12-20T04:39:20;95123.72;;;1.07;98.32
79285;BME280;68734;50.452;11.636;2023-12-20T04:41:47;95132.69;;;1.12;98.72
79285;BME280;68734;50.452;11.636;2023-12-20T04:44:13;95135.13;;;1.14;98.15
79285;BME280;68734;50.452;11.636;2023-12-20T04:46:38;95130.22;;;1.17;98.22
79285;BME280;68734;50.452;11.636;2023-12-20T04:49:04;95124.69;;;1.19;98.15
79285;BME280;68734;50.452;11.636;2023-12-20T04:51:37;95120.81;;;1.15;98.31
79285;BME280;68734;50.452;11.636;2023-12-20T04:54:05;95122.44;;;1.16;98.23
79285;BME280;68734;50.452;11.636;2023-12-20T04:56:31;95121.22;;;1.12;98.63
79285;BME280;68734;50.452;11.636;2023-12-20T04:58:56;95133.06;;;1.16;98.82
79285;BME280;68734;50.452;11.636;2023-12-20T05:01:22;95131.03;;;1.18;98.80
79285;BME280;68734;50.452;11.636;2023-12-20T05:03:47;95133.91;;;1.16;98.93
79285;BME280;68734;50.452;11.636;2023-12-20T05:06:13;95119.56;;;1.17;99.13
79285;BME280;68734;50.452;11.636;2023-12-20T05:08:38;95127.75;;;1.16;99.50
79285;BME280;68734;50.452;11.636;2023-12-20T05:11:04;95133.06;;;1.16;99.64
79285;BME280;68734;50.452;11.636;2023-12-20T05:13:29;95135.53;;;1.17;99.84
79285;BME280;68734;50.452;11.636;2023-12-20T05:15:55;95142.69;;;1.17;99.93
79285;BME280;68734;50.452;11.636;2023-12-20T05:18:21;95146.56;;;1.21;100.00
79285;BME280;68734;50.452;11.636;2023-12-20T05:20:47;95146.56;;;1.21;100.00
79285;BME280;68734;50.452;11.636;2023-12-20T05:23:12;95141.84;;;1.23;100.00
79285;BME280;68734;50.452;11.636;2023-12-20T05:25:38;95151.44;;;1.24;100.00
79285;BME280;68734;50.452;11.636;2023-12-20T05:28:04;95144.06;;;1.26;100.00
79285;BME280;68734;50.452;11.636;2023-12-20T05:30:32;95150.22;;;1.27;100.00
79285;BME280;68734;50.452;11.636;2023-12-20T05:32:57;95151.03;;;1.27;100.00
79285;BME280;68734;50.452;11.636;2023-12-20T05:35:25;95159.22;;;1.32;100.00
79285;BME280;68734;50.452;11.636;2023-12-20T05:37:50;95149.78;;;1.36;100.00
79285;BME280;68734;50.452;11.636;2023-12-20T05:40:16;95143.00;;;1.34;100.00
79285;BME280;68734;50.452;11.636;2023-12-20T05:42:41;95154.25;;;1.36;100.00
79285;BME280;68734;50.452;11.636;2023-12-20T05:45:07;95147.72;;;1.38;100.00
79285;BME280;68734;50.452;11.636;2023-12-20T05:47:35;95164.69;;;1.37;100.00
79285;BME280;68734;50.452;11.636;2023-12-20T05:50:00;95156.72;;;1.37;100.00
79285;BME280;68734;50.452;11.636;2023-12-20T05:52:26;95166.34;;;1.38;100.00
79285;BME280;68734;50.452;11.636;2023-12-20T05:54:56;95165.31;;;1.39;100.00
79285;BME280;68734;50.452;11.636;2023-12-20T05:57:23;95158.72;;;1.42;100.00
79285;BME280;68734;50.452;11.636;2023-12-20T05:59:48;95155.88;;;1.44;100.00
79285;BME280;68734;50.452;11.636;2023-12-20T06:02:14;95164.03;;;1.49;100.00
79285;BME280;68734;50.452;11.636;2023-12-20T06:04:42;95157.50;;;1.45;100.00
79285;BME280;68734;50.452;11.636;2023-12-20T06:07:08;95160.38;;;1.43;100.00
79285;BME280;68734;50.452;11.636;2023-12-20T06:09:33;95177.34;;;1.49;100.00
79285;BME280;68734;50.452;11.636;2023-12-20T06:11:59;95182.22;;;1.52;100.00
79285;BME280;68734;50.452;11.636;2023-12-20T06:14:29;95178.97;;;1.50;100.00
79285;BME280;68734;50.452;11.636;2023-12-20T06:16:58;95181.63;;;1.50;100.00
79285;BME280;68734;50.452;11.636;2023-12-20T06:19:26;95181.22;;;1.53;100.00
79285;BME280;68734;50.452;11.636;2023-12-20T06:21:51;95176.91;;;1.52;100.00
79285;BME280;68734;50.452;11.636;2023-12-20T06:24:19;95183.28;;;1.51;100.00
79285;BME280;68734;50.452;11.636;2023-12-20T06:26:47;95184.09;;;1.51;100.00
79285;BME280;68734;50.452;11.636;2023-12-20T06:29:12;95190.22;;;1.52;100.00
79285;BME280;68734;50.452;11.636;2023-12-20T06:31:38;95184.47;;;1.55;100.00
79285;BME280;68734;50.452;11.636;2023-12-20T06:34:03;95193.06;;;1.57;99.85
79285;BME280;68734;50.452;11.636;2023-12-20T06:36:29;95187.31;;;1.60;99.76
79285;BME280;68734;50.452;11.636;2023-12-20T06:38:54;95195.72;;;1.57;99.72
79285;BME280;68734;50.452;11.636;2023-12-20T06:41:19;95203.50;;;1.58;99.31
79285;BME280;68734;50.452;11.636;2023-12-20T06:43:45;95198.00;;;1.53;99.22
79285;BME280;68734;50.452;11.636;2023-12-20T06:46:10;95200.44;;;1.55;99.31
79285;BME280;68734;50.452;11.636;2023-12-20T06:48:38;95200.00;;;1.58;99.25
79285;BME280;68734;50.452;11.636;2023-12-20T06:51:03;95202.06;;;1.56;99.31
79285;BME280;68734;50.452;11.636;2023-12-20T06:53:29;95206.97;;;1.59;99.28
79285;BME280;68734;50.452;11.636;2023-12-20T06:55:55;95206.59;;;1.55;99.32
79285;BME280;68734;50.452;11.636;2023-12-20T06:58:21;95203.72;;;1.57;99.21
79285;BME280;68734;50.452;11.636;2023-12-20T07:00:47;95204.72;;;1.56;99.43
79285;BME280;68734;50.452;11.636;2023-12-20T07:03:16;95216.44;;;1.55;99.38
79285;BME280;68734;50.452;11.636;2023-12-20T07:05:42;95207.84;;;1.53;99.57
79285;BME280;68734;50.452;11.636;2023-12-20T07:08:07;95213.97;;;1.53;99.40
79285;BME280;68734;50.452;11.636;2023-12-20T07:10:35;95228.94;;;1.54;99.77
79285;BME280;68734;50.452;11.636;2023-12-20T07:13:01;95220.50;;;1.57;99.32
79285;BME280;68734;50.452;11.636;2023-12-20T07:15:26;95221.31;;;1.58;99.42
79285;BME280;68734;50.452;11.636;2023-12-20T07:17:53;95226.22;;;1.61;99.53
79285;BME280;68734;50.452;11.636;2023-12-20T07:20:21;95227.22;;;1.60;99.58
79285;BME280;68734;50.452;11.636;2023-12-20T07:22:46;95226.22;;;1.61;99.77
79285;BME280;68734;50.452;11.636;2023-12-20T07:25:11;95225.19;;;1.62;99.59
79285;BME280;68734;50.452;11.636;2023-12-20T07:27:37;95232.75;;;1.65;99.64
79285;BME280;68734;50.452;11.636;2023-12-20T07:30:03;95226.38;;;1.66;99.51
79285;BME280;68734;50.452;11.636;2023-12-20T07:32:30;95231.09;;;1.71;99.76
79285;BME280;68734;50.452;11.636;2023-12-20T07:34:58;95250.34;;;1.73;99.87
79285;BME280;68734;50.452;11.636;2023-12-20T07:37:23;95250.94;;;1.75;99.26
79285;BME280;68734;50.452;11.636;2023-12-20T07:39:49;95268.72;;;1.81;98.35
79285;BME280;68734;50.452;11.636;2023-12-20T07:42:14;95255.81;;;1.85;97.48
79285;BME280;68734;50.452;11.636;2023-12-20T07:44:40;95253.16;;;1.85;96.64
79285;BME280;68734;50.452;11.636;2023-12-20T07:47:05;95262.56;;;1.87;97.52
79285;BME280;68734;50.452;11.636;2023-12-20T07:49:31;95248.44;;;1.80;97.56
79285;BME280;68734;50.452;11.636;2023-12-20T07:52:01;95254.41;;;1.75;97.44
79285;BME280;68734;50.452;11.636;2023-12-20T07:54:27;95247.06;;;1.64;97.47
79285;BME280;68734;50.452;11.636;2023-12-20T07:56:52;95256.16;;;1.50;97.85
79285;BME280;68734;50.452;11.636;2023-12-20T07:59:18;95250.47;;;1.39;98.18
79285;BME280;68734;50.452;11.636;2023-12-20T08:01:43;95249.91;;;1.31;98.32
79285;BME280;68734;50.452;11.636;2023-12-20T08:04:09;95249.91;;;1.24;98.39
79285;BME280;68734;50.452;11.636;2023-12-20T08:06:36;95250.94;;;1.23;98.17
79285;BME280;68734;50.452;11.636;2023-12-20T08:09:02;95241.94;;;1.17;98.42
79285;BME280;68734;50.452;11.636;2023-12-20T08:11:28;95246.44;;;1.17;98.43
79285;BME280;68734;50.452;11.636;2023-12-20T08:13:53;95246.69;;;1.09;98.71
79285;BME280;68734;50.452;11.636;2023-12-20T08:16:19;95244.44;;;1.06;98.90
79285;BME280;68734;50.452;11.636;2023-12-20T08:18:44;95250.38;;;1.01;99.08
79285;BME280;68734;50.452;11.636;2023-12-20T08:21:10;95248.94;;;1.05;98.68
79285;BME280;68734;50.452;11.636;2023-12-20T08:23:38;95251.78;;;1.04;98.52
79285;BME280;68734;50.452;11.636;2023-12-20T08:26:05;95257.72;;;1.06;98.32
79285;BME280;68734;50.452;11.636;2023-12-20T08:28:30;95257.94;;;1.11;97.90
79285;BME280;68734;50.452;11.636;2023-12-20T08:30:56;95259.97;;;1.09;98.02
79285;BME280;68734;50.452;11.636;2023-12-20T08:33:22;95251.38;;;1.13;97.99
79285;BME280;68734;50.452;11.636;2023-12-20T08:35:47;95259.16;;;1.15;97.93
79285;BME280;68734;50.452;11.636;2023-12-20T08:38:13;95273.47;;;1.21;98.41
79285;BME280;68734;50.452;11.636;2023-12-20T08:40:39;95267.69;;;1.30;98.37
79285;BME280;68734;50.452;11.636;2023-12-20T08:43:05;95285.22;;;1.51;98.24
79285;BME280;68734;50.452;11.636;2023-12-20T08:45:32;95270.84;;;1.66;97.80
79285;BME280;68734;50.452;11.636;2023-12-20T08:47:58;95294.09;;;1.84;97.02
79285;BME280;68734;50.452;11.636;2023-12-20T08:50:25;95283.03;;;1.87;96.69
79285;BME280;68734;50.452;11.636;2023-12-20T08:52:50;95281.16;;;1.94;96.32
79285;BME280;68734;50.452;11.636;2023-12-20T08:55:16;95281.53;;;1.97;96.62
79285;BME280;68734;50.452;11.636;2023-12-20T08:57:43;95284.16;;;2.04;96.30
79285;BME280;68734;50.452;11.636;2023-12-20T09:00:12;95282.94;;;2.07;96.02
79285;BME280;68734;50.452;11.636;2023-12-20T09:02:37;95283.31;;;2.10;95.85
79285;BME280;68734;50.452;11.636;2023-12-20T09:05:04;95296.44;;;2.12;95.59
79285;BME280;68734;50.452;11.636;2023-12-20T09:07:30;95281.69;;;2.09;95.32
79285;BME280;68734;50.452;11.636;2023-12-20T09:09:58;95279.63;;;2.11;95.55
79285;BME280;68734;50.452;11.636;2023-12-20T09:12:24;95280.66;;;2.10;94.42
79285;BME280;68734;50.452;11.636;2023-12-20T09:14:51;95290.28;;;2.11;95.16
79285;BME280;68734;50.452;11.636;2023-12-20T09:17:17;95285.56;;;2.13;94.93
79285;BME280;68734;50.452;11.636;2023-12-20T09:19:46;95284.56;;;2.08;94.31
79285;BME280;68734;50.452;11.636;2023-12-20T09:22:12;95287.03;;;2.09;94.73
79285;BME280;68734;50.452;11.636;2023-12-20T09:24:37;95283.31;;;2.10;93.52
79285;BME280;68734;50.452;11.636;2023-12-20T09:27:06;95285.34;;;2.15;93.88
79285;BME280;68734;50.452;11.636;2023-12-20T09:29:32;95286.97;;;2.16;94.05
79285;BME280;68734;50.452;11.636;2023-12-20T09:31:58;95284.97;;;2.11;94.24
79285;BME280;68734;50.452;11.636;2023-12-20T09:34:23;95292.50;;;2.14;94.18
79285;BME280;68734;50.452;11.636;2023-12-20T09:36:52;95290.28;;;2.11;94.12
79285;BME280;68734;50.452;11.636;2023-12-20T09:39:18;95296.88;;;2.09;93.88
79285;BME280;68734;50.452;11.636;2023-12-20T09:41:49;95288.44;;;2.12;94.36
79285;BME280;68734;50.452;11.636;2023-12-20T09:44:18;95290.44;;;2.23;93.54
79285;BME280;68734;50.452;11.636;2023-12-20T09:46:45;95297.13;;;2.32;93.84
79285;BME280;68734;50.452;11.636;2023-12-20T09:49:16;95302.19;;;2.40;92.92
79285;BME280;68734;50.452;11.636;2023-12-20T09:51:43;95290.56;;;2.35;92.51
79285;BME280;68734;50.452;11.636;2023-12-20T09:54:09;95277.03;;;2.30;91.83
79285;BME280;68734;50.452;11.636;2023-12-20T09:56:37;95272.38;;;2.18;92.50
79285;BME280;68734;50.452;11.636;2023-12-20T09:59:03;95268.63;;;2.01;93.47
79285;BME280;68734;50.452;11.636;2023-12-20T10:01:31;95247.94;;;1.96;92.58
79285;BME280;68734;50.452;11.636;2023-12-20T10:03:57;95252.91;;;1.93;93.13
79285;BME280;68734;50.452;11.636;2023-12-20T10:06:24;95255.91;;;2.03;93.05
79285;BME280;68734;50.452;11.636;2023-12-20T10:08:50;95258.66;;;2.22;93.39
79285;BME280;68734;50.452;11.636;2023-12-20T10:11:15;95257.97;;;2.33;93.08
79285;BME280;68734;50.452;11.636;2023-12-20T10:13:41;95248.66;;;2.42;93.08
79285;BME280;68734;50.452;11.636;2023-12-20T10:16:07;95260.53;;;2.46;91.37
79285;BME280;68734;50.452;11.636;2023-12-20T10:18:35;95258.03;;;2.51;91.55
79285;BME280;68734;50.452;11.636;2023-12-20T10:21:03;95265.66;;;2.48;91.29
79285;BME280;68734;50.452;11.636;2023-12-20T10:23:31;95251.13;;;2.44;91.59
79285;BME280;68734;50.452;11.636;2023-12-20T10:26:00;95249.91;;;2.39;91.66
79285;BME280;68734;50.452;11.636;2023-12-20T10:28:25;95242.91;;;2.45;90.88
79285;BME280;68734;50.452;11.636;2023-12-20T10:30:54;95247.78;;;2.48;91.00
79285;BME280;68734;50.452;11.636;2023-12-20T10:33:31;95239.31;;;2.33;90.37
79285;BME280;68734;50.452;11.636;2023-12-20T10:35:59;95244.47;;;2.28;90.78
79285;BME280;68734;50.452;11.636;2023-12-20T10:38:24;95240.88;;;2.15;91.09
79285;BME280;68734;50.452;11.636;2023-12-20T10:40:54;95232.69;;;2.10;91.14
79285;BME280;68734;50.452;11.636;2023-12-20T10:43:22;95237.84;;;2.05;91.68
79285;BME280;68734;50.452;11.636;2023-12-20T10:45:48;95232.94;;;2.02;91.49
79285;BME280;68734;50.452;11.636;2023-12-20T10:48:14;95221.47;;;2.02;91.53
79285;BME280;68734;50.452;11.636;2023-12-20T10:50:41;95213.28;;;2.03;92.01
79285;BME280;68734;50.452;11.636;2023-12-20T10:53:15;95221.44;;;2.08;92.50
79285;BME280;68734;50.452;11.636;2023-12-20T10:55:42;95213.63;;;2.13;92.59
79285;BME280;68734;50.452;11.636;2023-12-20T10:58:09;95212.34;;;2.23;92.43
79285;BME280;68734;50.452;11.636;2023-12-20T11:00:43;95208.94;;;2.34;91.61
79285;BME280;68734;50.452;11.636;2023-12-20T11:03:11;95225.28;;;2.44;90.64
79285;BME280;68734;50.452;11.636;2023-12-20T11:05:54;95217.38;;;2.56;90.97
79285;BME280;68734;50.452;11.636;2023-12-20T11:08:47;95221.53;;;2.52;91.22
79285;BME280;68734;50.452;11.636;2023-12-20T11:11:27;95216.66;;;2.42;91.41
79285;BME280;68734;50.452;11.636;2023-12-20T11:14:03;95210.63;;;2.28;92.75
79285;BME280;68734;50.452;11.636;2023-12-20T11:16:33;95202.75;;;2.15;92.80
79285;BME280;68734;50.452;11.636;2023-12-20T11:19:04;95212.50;;;1.96;93.56
79285;BME280;68734;50.452;11.636;2023-12-20T11:21:33;95212.94;;;1.93;93.86
79285;BME280;68734;50.452;11.636;2023-12-20T11:24:01;95216.22;;;1.88;94.07
79285;BME280;68734;50.452;11.636;2023-12-20T11:26:30;95206.34;;;1.95;93.79
79285;BME280;68734;50.452;11.636;2023-12-20T11:29:30;95218.63;;;2.03;93.43
79285;BME280;68734;50.452;11.636;2023-12-20T11:31:57;95213.63;;;2.13;92.16
79285;BME280;68734;50.452;11.636;2023-12-20T11:34:29;95212.28;;;2.29;91.58
79285;BME280;68734;50.452;11.636;2023-12-20T11:37:02;95207.75;;;2.30;91.71
79285;BME280;68734;50.452;11.636;2023-12-20T11:39:28;95209.72;;;2.41;91.13
79285;BME280;68734;50.452;11.636;2023-12-20T11:41:56;95203.63;;;2.34;90.99
79285;BME280;68734;50.452;11.636;2023-12-20T11:44:24;95210.31;;;2.43;91.37
79285;BME280;68734;50.452;11.636;2023-12-20T11:46:50;95199.06;;;2.41;91.27
79285;BME280;68734;50.452;11.636;2023-12-20T11:49:16;95188.78;;;2.45;90.64
79285;BME280;68734;50.452;11.636;2023-12-20T11:51:41;95195.34;;;2.42;91.18
79285;BME280;68734;50.452;11.636;2023-12-20T11:54:10;95190.00;;;2.42;91.22
79285;BME280;68734;50.452;11.636;2023-12-20T11:56:38;95203.94;;;2.44;92.54
79285;BME280;68734;50.452;11.636;2023-12-20T11:59:04;95188.53;;;2.46;91.09
79285;BME280;68734;50.452;11.636;2023-12-20T12:01:31;95181.41;;;2.40;91.60
79285;BME280;68734;50.452;11.636;2023-12-20T12:04:15;95188.50;;;2.28;92.18
79285;BME280;68734;50.452;11.636;2023-12-20T12:06:40;95192.41;;;2.25;92.43
79285;BME280;68734;50.452;11.636;2023-12-20T12:09:06;95177.56;;;2.11;92.32
79285;BME280;68734;50.452;11.636;2023-12-20T12:11:32;95186.19;;;2.06;93.71
79285;BME280;68734;50.452;11.636;2023-12-20T12:13:57;95180.84;;;2.13;93.71
79285;BME280;68734;50.452;11.636;2023-12-20T12:16:23;95179.09;;;2.25;93.01
79285;BME280;68734;50.452;11.636;2023-12-20T12:18:58;95192.97;;;2.34;92.73
79285;BME280;68734;50.452;11.636;2023-12-20T12:21:26;95190.16;;;2.29;92.29
79285;BME280;68734;50.452;11.636;2023-12-20T12:23:52;95189.28;;;2.35;92.90
79285;BME280;68734;50.452;11.636;2023-12-20T12:26:18;95172.69;;;2.33;92.95
79285;BME280;68734;50.452;11.636;2023-12-20T12:28:44;95179.47;;;2.29;92.51
79285;BME280;68734;50.452;11.636;2023-12-20T12:31:17;95162.31;;;2.25;93.17
79285;BME280;68734;50.452;11.636;2023-12-20T12:33:42;95171.13;;;2.18;92.41
79285;BME280;68734;50.452;11.636;2023-12-20T12:36:10;95171.41;;;2.10;92.71
79285;BME280;68734;50.452;11.636;2023-12-20T12:38:36;95167.72;;;2.11;92.76
79285;BME280;68734;50.452;11.636;2023-12-20T12:41:02;95160.41;;;2.07;93.25
79285;BME280;68734;50.452;11.636;2023-12-20T12:43:27;95153.41;;;2.06;93.07
79285;BME280;68734;50.452;11.636;2023-12-20T12:45:55;95155.34;;;1.98;92.60
79285;BME280;68734;50.452;11.636;2023-12-20T12:48:21;95162.47;;;2.05;93.15
79285;BME280;68734;50.452;11.636;2023-12-20T12:50:48;95162.00;;;2.08;93.34
79285;BME280;68734;50.452;11.636;2023-12-20T12:53:16;95155.41;;;2.10;93.14
79285;BME280;68734;50.452;11.636;2023-12-20T12:55:46;95148.41;;;2.16;92.56
79285;BME280;68734;50.452;11.636;2023-12-20T12:58:12;95145.31;;;2.19;93.18